createdAt,value
2019-05-06T00:01:46.088Z,4.47
2019-05-06T00:04:17.229Z,4.60
2019-05-06T00:06:48.501Z,5.50
2019-05-06T00:09:19.911Z,6.20
2019-05-06T00:11:51.472Z,4.80
2019-05-06T00:14:23.549Z,4.23
2019-05-06T00:16:58.389Z,2.30
2019-05-06T00:19:27.912Z,2.70
2019-05-06T00:21:59.060Z,2.20
2019-05-06T00:24:35.913Z,1.90
2019-05-06T00:27:14.131Z,1.90
2019-05-06T00:29:46.910Z,1.93
2019-05-06T00:32:18.569Z,2.07
2019-05-06T00:34:49.851Z,2.00
2019-05-06T00:37:21.335Z,2.30
2019-05-06T00:40:00.373Z,2.20
2019-05-06T00:42:50.369Z,2.00
2019-05-06T00:45:21.898Z,2.30
2019-05-06T00:47:53.656Z,1.97
2019-05-06T00:50:24.941Z,2.40
2019-05-06T00:52:57.302Z,2.23
2019-05-06T00:55:28.714Z,2.63
2019-05-06T00:57:59.908Z,2.40
2019-05-06T01:00:35.048Z,2.33
2019-05-06T01:03:06.620Z,2.50
2019-05-06T01:05:37.954Z,2.77
2019-05-06T01:08:09.540Z,2.90
2019-05-06T01:10:40.965Z,3.13
2019-05-06T01:13:24.399Z,2.20
2019-05-06T01:15:55.908Z,2.70
2019-05-06T01:18:27.112Z,2.00
2019-05-06T01:21:10.713Z,2.70
2019-05-06T01:23:44.678Z,2.93
2019-05-06T01:26:16.542Z,3.40
2019-05-06T01:28:48.399Z,3.20
2019-05-06T01:31:19.630Z,3.63
2019-05-06T01:33:50.972Z,3.40
2019-05-06T01:36:22.221Z,3.97
2019-05-06T01:39:15.238Z,4.17
2019-05-06T01:42:05.425Z,4.03
2019-05-06T01:44:36.921Z,4.50
2019-05-06T01:47:08.574Z,3.70
2019-05-06T01:49:40.135Z,4.10
2019-05-06T01:52:11.516Z,4.37
2019-05-06T01:54:43.492Z,4.40
2019-05-06T01:57:14.952Z,4.50
2019-05-06T01:59:46.284Z,4.57
2019-05-06T02:02:17.251Z,4.63
2019-05-06T02:04:48.801Z,4.93
2019-05-06T02:07:20.173Z,4.83
2019-05-06T02:09:53.679Z,5.40
2019-05-06T02:12:24.865Z,5.63
2019-05-06T02:14:56.047Z,5.40
2019-05-06T02:17:27.429Z,5.97
2019-05-06T02:19:58.797Z,5.13
2019-05-06T02:22:48.902Z,5.50
2019-05-06T02:25:30.584Z,4.83
2019-05-06T02:28:03.841Z,4.90
2019-05-06T02:30:59.423Z,5.87
2019-05-06T02:33:49.355Z,5.07
2019-05-06T02:36:37.958Z,5.30
2019-05-06T02:39:09.129Z,5.20
2019-05-06T02:41:42.943Z,5.40
2019-05-06T02:44:13.867Z,5.40
2019-05-06T02:46:47.717Z,6.30
2019-05-06T02:49:39.353Z,5.63
2019-05-06T02:52:14.156Z,5.80
2019-05-06T02:54:45.715Z,5.70
2019-05-06T02:57:16.976Z,6.00
2019-05-06T02:59:48.340Z,5.70
2019-05-06T03:02:35.627Z,6.00
2019-05-06T03:04:52.980Z,5.57
2019-05-06T03:07:24.353Z,5.73
2019-05-06T03:09:55.439Z,5.90
2019-05-06T03:12:26.575Z,5.43
2019-05-06T03:14:57.626Z,5.90
2019-05-06T03:17:28.691Z,5.80
2019-05-06T03:20:04.214Z,7.13
2019-05-06T03:22:50.066Z,6.73
2019-05-06T03:25:28.223Z,6.40
2019-05-06T03:27:59.661Z,6.90
2019-05-06T03:30:35.849Z,6.63
2019-05-06T03:35:56.419Z,6.43
2019-05-06T03:38:09.869Z,7.00
2019-05-06T03:40:45.049Z,6.53
2019-05-06T03:43:16.064Z,7.23
2019-05-06T03:46:05.892Z,5.60
2019-05-06T03:48:39.563Z,8.80
2019-05-06T03:51:12.810Z,6.80
2019-05-06T03:53:44.593Z,7.20
2019-05-06T03:56:20.063Z,6.50
2019-05-06T03:58:53.626Z,6.00
2019-05-06T04:01:25.060Z,6.67
2019-05-06T04:03:57.388Z,6.13
2019-05-06T04:06:29.288Z,6.70
2019-05-06T04:09:03.736Z,5.00
2019-05-06T04:11:36.563Z,6.80
2019-05-06T04:14:08.431Z,4.97
2019-05-06T04:16:49.062Z,6.50
2019-05-06T04:19:27.345Z,5.50
2019-05-06T04:22:23.552Z,6.40
2019-05-06T04:25:33.889Z,5.93
2019-05-06T04:28:13.682Z,5.63
2019-05-06T04:30:45.268Z,5.70
2019-05-06T04:33:17.619Z,5.40
2019-05-06T04:35:49.116Z,5.00
2019-05-06T04:38:23.581Z,5.57
2019-05-06T04:40:54.473Z,5.20
2019-05-06T04:43:26.652Z,6.30
2019-05-06T04:45:58.377Z,5.80
2019-05-06T04:48:29.496Z,6.13
2019-05-06T04:51:03.446Z,7.00
2019-05-06T04:53:34.226Z,6.87
2019-05-06T04:56:05.551Z,6.63
2019-05-06T04:58:36.778Z,7.00
2019-05-06T05:01:11.896Z,6.80
2019-05-06T05:03:42.734Z,7.00
2019-05-06T05:06:14.653Z,5.90
2019-05-06T05:08:46.120Z,6.57
2019-05-06T05:11:39.314Z,6.57
2019-05-06T05:14:29.804Z,5.60
2019-05-06T05:17:16.874Z,6.40
2019-05-06T05:19:48.804Z,6.50
2019-05-06T05:22:21.908Z,6.60
2019-05-06T05:24:53.232Z,7.00
2019-05-06T05:27:24.291Z,7.33
2019-05-06T05:29:55.305Z,8.17
2019-05-06T05:32:27.090Z,8.10
2019-05-06T05:34:58.488Z,7.97
2019-05-06T05:37:29.894Z,7.93
2019-05-06T05:40:03.044Z,7.47
2019-05-06T05:42:59.676Z,7.73
2019-05-06T05:45:32.737Z,6.40
2019-05-06T05:48:09.027Z,6.33
2019-05-06T05:50:42.036Z,6.17
2019-05-06T05:53:13.451Z,6.20
2019-05-06T05:55:44.677Z,6.17
2019-05-06T05:58:15.767Z,6.50
2019-05-06T06:00:46.970Z,6.33
2019-05-06T06:03:18.155Z,5.60
2019-05-06T06:05:49.314Z,6.17
2019-05-06T06:08:22.779Z,5.60
2019-05-06T06:10:58.553Z,5.07
2019-05-06T06:13:31.903Z,5.83
2019-05-06T06:16:19.704Z,6.30
2019-05-06T06:19:07.461Z,4.93
2019-05-06T06:21:52.901Z,5.90
2019-05-06T06:24:32.046Z,6.60
2019-05-06T06:27:03.281Z,6.97
2019-05-06T06:29:34.499Z,7.00
2019-05-06T06:32:17.464Z,7.70
2019-05-06T06:35:10.721Z,7.90
2019-05-06T06:37:58.447Z,8.00
2019-05-06T06:40:32.931Z,7.33
2019-05-06T06:43:12.486Z,7.63
2019-05-06T06:45:43.733Z,6.40
2019-05-06T06:48:15.007Z,7.60
2019-05-06T06:50:46.184Z,7.50
2019-05-06T06:53:17.501Z,6.80
2019-05-06T06:55:48.653Z,6.83
2019-05-06T06:58:29.430Z,6.30
2019-05-06T07:01:18.139Z,6.40
2019-05-06T07:03:54.881Z,7.17
2019-05-06T07:06:37.537Z,7.53
2019-05-06T07:09:09.379Z,6.67
2019-05-06T07:11:42.649Z,6.70
2019-05-06T07:14:13.766Z,8.07
2019-05-06T07:16:45.102Z,8.50
2019-05-06T07:19:19.404Z,6.73
2019-05-06T07:21:54.185Z,7.57
2019-05-06T07:24:25.495Z,6.90
2019-05-06T07:27:05.401Z,6.70
2019-05-06T07:29:36.975Z,6.80
2019-05-06T07:32:08.208Z,6.07
2019-05-06T07:34:39.498Z,5.13
2019-05-06T07:37:12.510Z,6.10
2019-05-06T07:39:44.083Z,5.53
2019-05-06T07:42:22.710Z,5.10
2019-05-06T07:45:18.667Z,7.30
2019-05-06T07:47:55.788Z,5.03
2019-05-06T07:50:26.934Z,6.10
2019-05-06T07:53:07.327Z,7.97
2019-05-06T07:55:42.448Z,6.80
2019-05-06T07:58:13.939Z,6.10
2019-05-06T08:00:45.067Z,4.50
2019-05-06T08:03:16.031Z,4.60
2019-05-06T08:05:55.837Z,4.70
2019-05-06T08:08:19.807Z,2.90
2019-05-06T08:10:52.674Z,2.80
2019-05-06T08:13:23.735Z,2.33
2019-05-06T08:15:55.359Z,2.73
2019-05-06T08:18:26.396Z,2.10
2019-05-06T08:21:02.360Z,2.07
2019-05-06T08:23:52.350Z,2.10
2019-05-06T08:26:23.838Z,5.43
2019-05-06T08:28:55.110Z,2.20
2019-05-06T08:31:26.343Z,1.60
2019-05-06T08:33:57.670Z,2.23
2019-05-06T08:36:42.756Z,2.90
2019-05-06T08:39:14.182Z,2.47
2019-05-06T08:41:45.487Z,2.13
2019-05-06T08:44:16.807Z,2.77
2019-05-06T08:46:49.239Z,2.30
2019-05-06T08:49:22.531Z,2.00
2019-05-06T08:52:02.545Z,2.60
2019-05-06T08:54:38.400Z,1.77
2019-05-06T08:57:18.195Z,1.80
2019-05-06T08:59:49.618Z,2.20
2019-05-06T09:02:22.886Z,1.70
2019-05-06T09:04:54.345Z,2.00
2019-05-06T09:07:26.881Z,1.93
2019-05-06T09:09:57.859Z,1.67
2019-05-06T09:12:29.101Z,1.90
2019-05-06T09:15:00.170Z,1.47
2019-05-06T09:17:33.010Z,1.77
2019-05-06T09:20:04.556Z,3.90
2019-05-06T09:22:36.152Z,1.60
2019-05-06T09:25:07.849Z,1.40
2019-05-06T09:27:56.482Z,1.67
2019-05-06T09:30:43.867Z,1.73
2019-05-06T09:33:17.572Z,1.67
2019-05-06T09:35:48.604Z,1.60
2019-05-06T09:38:19.683Z,1.33
2019-05-06T09:40:52.554Z,6.60
2019-05-06T09:43:23.614Z,4.80
2019-05-06T09:45:54.613Z,1.67
2019-05-06T09:48:42.488Z,2.17
2019-05-06T09:51:13.766Z,1.90
2019-05-06T09:54:04.210Z,1.57
2019-05-06T09:56:55.453Z,1.90
2019-05-06T09:59:26.493Z,2.10
2019-05-06T10:01:57.743Z,1.87
2019-05-06T10:04:32.381Z,1.90
2019-05-06T10:07:02.967Z,1.67
2019-05-06T10:09:34.343Z,1.40
2019-05-06T10:12:05.499Z,1.70
2019-05-06T10:14:36.646Z,1.83
2019-05-06T10:17:07.811Z,1.60
2019-05-06T10:19:39.168Z,1.57
2019-05-06T10:22:12.507Z,1.73
2019-05-06T10:24:43.479Z,1.80
2019-05-06T10:27:15.064Z,2.80
2019-05-06T10:29:55.103Z,2.27
2019-05-06T10:32:42.485Z,1.40
2019-05-06T10:35:13.917Z,1.70
2019-05-06T10:38:06.426Z,1.73
2019-05-06T10:40:57.313Z,1.90
2019-05-06T10:43:46.365Z,1.80
2019-05-06T10:46:17.648Z,1.97
2019-05-06T10:48:48.893Z,2.30
2019-05-06T10:51:25.947Z,2.40
2019-05-06T10:53:57.109Z,2.33
2019-05-06T10:56:53.844Z,2.17
2019-05-06T10:59:21.926Z,2.10
2019-05-06T11:01:54.459Z,1.70
2019-05-06T11:04:25.613Z,1.80
2019-05-06T11:06:56.800Z,2.40
2019-05-06T11:09:27.817Z,2.27
2019-05-06T11:11:59.324Z,2.10
2019-05-06T11:14:32.918Z,2.40
2019-05-06T11:17:05.195Z,2.57
2019-05-06T11:19:36.682Z,2.10
2019-05-06T11:22:09.125Z,2.47
2019-05-06T11:24:42.162Z,2.33
2019-05-06T11:27:27.669Z,2.63
2019-05-06T11:29:49.067Z,4.20
2019-05-06T11:32:44.186Z,2.30
2019-05-06T11:35:36.491Z,2.10
2019-05-06T11:38:12.131Z,2.20
2019-05-06T11:40:43.263Z,2.20
2019-05-06T11:43:14.244Z,2.37
2019-05-06T11:45:45.961Z,2.83
2019-05-06T11:48:17.245Z,2.50
2019-05-06T11:50:50.250Z,2.83
2019-05-06T11:53:23.106Z,2.70
2019-05-06T11:55:54.800Z,2.77
2019-05-06T11:58:53.191Z,3.70
2019-05-06T12:01:27.400Z,2.70
2019-05-06T12:03:58.827Z,15.00
2019-05-06T12:06:30.122Z,3.17
2019-05-06T12:09:06.048Z,3.80
2019-05-06T12:11:36.114Z,2.80
2019-05-06T12:14:07.144Z,3.30
2019-05-06T12:16:38.793Z,3.17
2019-05-06T12:19:10.186Z,3.53
2019-05-06T12:21:43.110Z,3.47
2019-05-06T12:24:14.315Z,3.40
2019-05-06T12:26:45.564Z,3.10
2019-05-06T12:29:16.555Z,3.20
2019-05-06T12:31:52.929Z,3.10
2019-05-06T12:34:24.034Z,3.40
2019-05-06T12:36:57.801Z,3.07
2019-05-06T12:39:33.003Z,3.20
2019-05-06T12:42:25.253Z,3.00
2019-05-06T12:45:13.064Z,3.00
2019-05-06T12:47:56.959Z,2.90
2019-05-06T12:50:28.109Z,3.07
2019-05-06T12:52:59.452Z,2.90
2019-05-06T12:55:33.438Z,2.60
2019-05-06T12:58:03.993Z,2.67
2019-05-06T13:00:34.994Z,2.73
2019-05-06T13:03:06.411Z,2.90
2019-05-06T13:05:37.394Z,2.80
2019-05-06T13:08:08.655Z,2.97
2019-05-06T13:10:42.040Z,3.10
2019-05-06T13:13:12.868Z,3.10
2019-05-06T13:15:44.197Z,3.67
2019-05-06T13:18:15.788Z,3.90
2019-05-06T13:20:51.139Z,3.53
2019-05-06T13:23:37.331Z,3.27
2019-05-06T13:26:08.513Z,2.80
2019-05-06T13:28:42.911Z,3.33
2019-05-06T13:31:20.674Z,3.47
2019-05-06T13:33:54.535Z,3.67
2019-05-06T13:36:26.005Z,3.50
2019-05-06T13:39:13.391Z,3.90
2019-05-06T13:41:29.932Z,3.30
2019-05-06T13:44:13.155Z,3.50
2019-05-06T13:46:47.767Z,2.90
2019-05-06T13:49:45.781Z,2.83
2019-05-06T13:52:22.804Z,2.43
2019-05-06T13:54:53.659Z,2.60
2019-05-06T13:57:25.102Z,3.03
2019-05-06T13:59:56.106Z,5.60
2019-05-06T14:02:53.127Z,8.20
2019-05-06T14:05:24.732Z,2.30
2019-05-06T14:07:56.167Z,2.57
2019-05-06T14:10:27.550Z,2.70
2019-05-06T14:12:58.464Z,3.13
2019-05-06T14:15:29.673Z,2.20
2019-05-06T14:18:02.641Z,2.50
2019-05-06T14:20:34.039Z,2.30
2019-05-06T14:23:04.962Z,3.50
2019-05-06T14:25:55.318Z,3.00
2019-05-06T14:28:32.417Z,2.87
2019-05-06T14:31:11.352Z,2.47
2019-05-06T14:33:42.865Z,2.20
2019-05-06T14:36:14.230Z,2.20
2019-05-06T14:38:45.579Z,2.80
2019-05-06T14:41:26.050Z,2.63
2019-05-06T14:43:52.763Z,2.90
2019-05-06T14:46:24.008Z,2.87
2019-05-06T14:48:55.097Z,3.10
2019-05-06T14:51:26.577Z,4.07
2019-05-06T14:53:57.570Z,2.80
2019-05-06T14:56:47.370Z,3.73
2019-05-06T14:59:18.451Z,2.80
2019-05-06T15:01:49.505Z,2.70
2019-05-06T15:04:22.904Z,3.17
2019-05-06T15:06:53.326Z,3.17
2019-05-06T15:09:24.706Z,3.20
2019-05-06T15:11:55.825Z,3.37
2019-05-06T15:14:26.905Z,3.53
2019-05-06T15:16:58.213Z,3.53
2019-05-06T15:19:29.555Z,3.50
2019-05-06T15:22:02.258Z,3.97
2019-05-06T15:24:33.263Z,3.70
2019-05-06T15:27:05.696Z,3.67
2019-05-06T15:29:36.897Z,4.10
2019-05-06T15:32:18.970Z,4.37
2019-05-06T15:35:02.578Z,4.60
2019-05-06T15:37:42.524Z,5.17
2019-05-06T15:40:14.268Z,5.43
2019-05-06T15:42:45.271Z,6.23
2019-05-06T15:45:17.088Z,5.40
2019-05-06T15:47:48.391Z,5.53
2019-05-06T15:50:19.876Z,10.95
2019-05-06T15:52:53.668Z,5.45
2019-05-06T15:55:24.960Z,5.20
2019-05-06T15:57:56.515Z,4.75
2019-05-06T16:00:28.442Z,5.00
2019-05-06T16:02:59.919Z,5.70
2019-05-06T16:05:34.531Z,5.70
2019-05-06T16:08:07.341Z,5.62
2019-05-06T16:10:51.806Z,5.25
2019-05-06T16:13:12.932Z,5.92
2019-05-06T16:15:44.900Z,6.28
2019-05-06T16:18:16.333Z,4.75
2019-05-06T16:20:47.638Z,4.55
2019-05-06T16:23:42.291Z,3.70
2019-05-06T16:26:13.699Z,4.08
2019-05-06T16:28:45.292Z,3.40
2019-05-06T16:31:16.932Z,4.50
2019-05-06T16:33:48.664Z,7.42
2019-05-06T16:36:22.702Z,7.35
2019-05-06T16:38:54.868Z,7.62
2019-05-06T16:41:26.323Z,5.05
2019-05-06T16:43:57.610Z,5.20
2019-05-06T16:46:28.902Z,4.30
2019-05-06T16:49:02.245Z,4.33
2019-05-06T16:51:33.667Z,4.97
2019-05-06T16:54:05.183Z,4.53
2019-05-06T16:56:52.846Z,4.50
2019-05-06T16:59:24.567Z,4.95
2019-05-06T17:01:56.252Z,5.00
2019-05-06T17:04:48.186Z,5.70
2019-05-06T17:07:19.705Z,4.40
2019-05-06T17:09:52.602Z,4.92
2019-05-06T17:12:24.378Z,4.95
2019-05-06T17:14:55.974Z,4.55
2019-05-06T17:17:39.738Z,4.37
2019-05-06T17:20:03.100Z,3.42
2019-05-06T17:22:34.608Z,3.60
2019-05-06T17:25:07.655Z,3.50
2019-05-06T17:27:40.277Z,3.92
2019-05-06T17:30:26.290Z,3.75
2019-05-06T17:33:06.742Z,4.70
2019-05-06T17:35:38.537Z,3.92
2019-05-06T17:38:14.540Z,3.90
2019-05-06T17:40:45.911Z,4.70
2019-05-06T17:43:17.500Z,3.90
2019-05-06T17:46:01.364Z,4.10
2019-05-06T17:48:35.449Z,3.98
2019-05-06T17:51:33.542Z,4.45
2019-05-06T17:54:06.061Z,4.10
2019-05-06T17:56:37.678Z,3.90
2019-05-06T17:59:09.200Z,4.25
2019-05-06T18:01:46.607Z,4.08
2019-05-06T18:04:18.165Z,7.47
2019-05-06T18:06:52.472Z,4.05
2019-05-06T18:09:23.407Z,5.65
2019-05-06T18:11:59.011Z,4.30
2019-05-06T18:14:28.421Z,4.70
2019-05-06T18:17:00.080Z,4.22
2019-05-06T18:19:33.179Z,4.75
2019-05-06T18:22:04.636Z,4.53
2019-05-06T18:24:35.997Z,5.60
2019-05-06T18:27:07.638Z,3.67
2019-05-06T18:29:39.239Z,3.58
2019-05-06T18:32:12.665Z,3.87
2019-05-06T18:34:43.512Z,3.37
2019-05-06T18:37:14.973Z,3.70
2019-05-06T18:39:46.305Z,3.85
2019-05-06T18:42:21.491Z,3.52
2019-05-06T18:44:52.614Z,3.25
2019-05-06T18:47:24.459Z,3.02
2019-05-06T18:49:57.678Z,3.22
2019-05-06T18:52:28.991Z,3.05
2019-05-06T18:55:00.643Z,3.37
2019-05-06T18:57:33.061Z,3.35
2019-05-06T19:00:05.146Z,4.22
2019-05-06T19:02:38.265Z,5.12
2019-05-06T19:05:16.173Z,4.78
2019-05-06T19:07:47.822Z,4.37
2019-05-06T19:10:25.132Z,5.03
2019-05-06T19:12:56.685Z,6.30
2019-05-06T19:15:29.126Z,7.47
2019-05-06T19:18:02.248Z,8.88
2019-05-06T19:20:34.097Z,10.90
2019-05-06T19:23:05.886Z,12.60
2019-05-06T19:25:37.520Z,13.10
2019-05-06T19:28:09.264Z,18.55
2019-05-06T19:30:41.880Z,16.52
2019-05-06T19:33:13.322Z,22.37
2019-05-06T19:35:44.807Z,15.85
2019-05-06T19:38:16.522Z,14.93
2019-05-06T19:40:47.868Z,13.88
2019-05-06T19:43:19.414Z,14.13
2019-05-06T19:45:52.887Z,16.80
2019-05-06T19:48:24.637Z,14.70
2019-05-06T19:50:56.217Z,13.70
2019-05-06T19:53:27.921Z,13.72
2019-05-06T19:55:59.481Z,14.15
2019-05-06T19:58:32.213Z,13.62
2019-05-06T20:01:04.996Z,14.38
2019-05-06T20:03:36.640Z,15.78
2019-05-06T20:06:27.140Z,14.33
2019-05-06T20:09:16.179Z,14.03
2019-05-06T20:11:48.085Z,14.65
2019-05-06T20:14:21.921Z,15.00
2019-05-06T20:16:53.025Z,15.88
2019-05-06T20:19:30.657Z,15.55
2019-05-06T20:21:59.022Z,16.35
2019-05-06T20:24:33.077Z,17.60
2019-05-06T20:27:04.128Z,18.37
2019-05-06T20:29:38.443Z,18.45
2019-05-06T20:32:09.410Z,19.77
2019-05-06T20:34:42.881Z,19.75
2019-05-06T20:37:14.127Z,20.82
2019-05-06T20:39:45.654Z,20.82
2019-05-06T20:42:17.102Z,21.60
2019-05-06T20:44:48.618Z,22.48
2019-05-06T20:47:20.097Z,21.12
2019-05-06T20:49:52.627Z,22.62
2019-05-06T20:52:24.061Z,22.85
2019-05-06T20:54:55.426Z,20.77
2019-05-06T20:57:26.917Z,21.20
2019-05-06T20:59:58.333Z,21.57
2019-05-06T21:02:29.766Z,21.12
2019-05-06T21:05:02.205Z,19.98
2019-05-06T21:07:33.841Z,19.67
2019-05-06T21:10:06.133Z,21.95
2019-05-06T21:12:37.653Z,20.52
2019-05-06T21:15:09.498Z,21.25
2019-05-06T21:17:41.976Z,21.25
2019-05-06T21:20:14.207Z,21.07
2019-05-06T21:22:48.861Z,21.68
2019-05-06T21:25:19.020Z,21.52
2019-05-06T21:27:53.115Z,22.02
2019-05-06T21:30:24.155Z,21.12
2019-05-06T21:32:55.642Z,19.62
2019-05-06T21:35:27.252Z,20.70
2019-05-06T21:37:58.685Z,19.17
2019-05-06T21:40:32.140Z,18.92
2019-05-06T21:43:03.755Z,20.08
2019-05-06T21:45:35.390Z,17.77
2019-05-06T21:48:07.170Z,17.62
2019-05-06T21:50:38.932Z,18.42
2019-05-06T21:53:12.304Z,17.85
2019-05-06T21:55:44.158Z,18.12
2019-05-06T21:58:15.829Z,17.90
2019-05-06T22:01:05.291Z,18.77
2019-05-06T22:03:38.412Z,17.40
2019-05-06T22:06:09.977Z,17.52
2019-05-06T22:08:42.362Z,17.65
2019-05-06T22:11:14.309Z,17.20
2019-05-06T22:13:57.771Z,17.30
2019-05-06T22:16:18.840Z,16.65
2019-05-06T22:18:52.707Z,17.07
2019-05-06T22:21:25.137Z,16.35
2019-05-06T22:23:58.059Z,16.48
2019-05-06T22:26:32.312Z,15.30
2019-05-06T22:29:03.183Z,14.40
2019-05-06T22:31:35.026Z,16.35
2019-05-06T22:34:06.577Z,14.70
2019-05-06T22:36:38.176Z,12.88
2019-05-06T22:39:11.878Z,14.28
2019-05-06T22:41:44.060Z,14.33
2019-05-06T22:44:17.225Z,13.38
2019-05-06T22:46:48.994Z,13.10
2019-05-06T22:49:22.530Z,12.33
2019-05-06T22:51:53.758Z,11.12
2019-05-06T22:54:25.487Z,10.85
2019-05-06T22:56:57.185Z,11.75
2019-05-06T22:59:28.876Z,11.63
2019-05-06T23:02:17.652Z,10.55
2019-05-06T23:04:53.076Z,11.20
2019-05-06T23:07:25.022Z,11.28
2019-05-06T23:09:56.610Z,10.58
2019-05-06T23:12:27.859Z,10.25
2019-05-06T23:14:59.249Z,10.55
2019-05-06T23:17:34.247Z,9.58
2019-05-06T23:20:04.234Z,9.88
2019-05-06T23:22:35.463Z,9.48
2019-05-06T23:25:06.986Z,9.63
2019-05-06T23:27:38.306Z,9.58
2019-05-06T23:30:09.855Z,9.08
2019-05-06T23:32:42.216Z,9.18
2019-05-06T23:35:14.138Z,9.43
2019-05-06T23:38:22.909Z,8.88
2019-05-06T23:41:28.637Z,9.13
2019-05-06T23:44:45.031Z,8.88
2019-05-06T23:47:43.790Z,8.75
2019-05-06T23:50:50.015Z,8.43
2019-05-06T23:53:56.685Z,7.87
2019-05-06T23:56:43.482Z,8.35
2019-05-06T23:59:16.551Z,8.68
